Time;durP1;ratioP1;P1;durP2;ratioP2;P2;SDS_P1;SDS_P2;PMS_P1;PMS_P2;Temp;Humidity;BMP_temperature;BMP_pressure;BME280_temperature;BME280_humidity;BME280_pressure;Samples;Min_cycle;Max_cycle;Signal;HPM_P1;HPM_P2
2022/07/19 00:01:28;;;;;;;8.27;4.60;;;;;;;24.07;57.06;101842.78;4982003;28;20034;-53
2022/07/19 00:03:56;;;;;;;10.00;4.70;;;;;;;24.05;57.06;101844.56;4967799;28;20517;-55
2022/07/19 00:06:21;;;;;;;10.43;5.32;;;;;;;24.00;56.33;101835.84;5001323;28;20030;-53
2022/07/19 00:08:46;;;;;;;10.05;5.82;;;;;;;24.02;55.85;101833.19;4984967;28;20042;-54
2022/07/19 00:11:12;;;;;;;11.27;6.18;;;;;;;24.00;54.92;101833.22;4983708;28;20023;-55
2022/07/19 00:13:37;;;;;;;11.20;6.10;;;;;;;23.96;54.98;101839.41;4967698;28;20502;-52
2022/07/19 00:16:02;;;;;;;12.88;6.78;;;;;;;23.93;54.30;101834.19;4979768;28;20059;-54
2022/07/19 00:18:28;;;;;;;9.38;6.20;;;;;;;23.95;54.22;101827.16;4981059;28;20036;-51
2022/07/19 00:20:53;;;;;;;11.80;6.88;;;;;;;23.94;53.65;101828.06;4988330;28;20083;-55
2022/07/19 00:23:19;;;;;;;10.75;6.78;;;;;;;23.86;54.51;101824.66;4989407;28;20058;-51
2022/07/19 00:25:44;;;;;;;8.32;6.30;;;;;;;23.84;54.05;101822.91;4983415;28;20054;-53
2022/07/19 00:28:10;;;;;;;10.50;6.22;;;;;;;23.85;54.81;101820.28;4983865;28;20031;-53
2022/07/19 00:30:35;;;;;;;10.57;6.22;;;;;;;23.76;55.23;101823.00;4984872;28;20379;-54
2022/07/19 00:33:04;;;;;;;10.75;5.95;;;;;;;23.74;55.21;101816.91;4985677;28;20030;-52
2022/07/19 00:35:29;;;;;;;11.30;6.20;;;;;;;23.75;53.93;101822.16;4984501;28;20034;-52
2022/07/19 00:37:55;;;;;;;10.15;6.28;;;;;;;23.72;54.50;101818.66;4964983;28;20045;-53
2022/07/19 00:40:24;;;;;;;11.38;6.10;;;;;;;23.76;55.56;101820.38;4967467;28;20088;-53
2022/07/19 00:42:51;;;;;;;11.85;5.90;;;;;;;23.64;54.78;101818.75;4980694;28;20169;-53
2022/07/19 00:45:17;;;;;;;11.05;6.45;;;;;;;23.64;54.93;101817.91;4986715;28;20127;-54
2022/07/19 00:47:42;;;;;;;10.90;6.35;;;;;;;23.61;54.67;101810.03;4983386;28;20509;-53
2022/07/19 00:50:08;;;;;;;10.27;5.97;;;;;;;23.63;54.55;101814.41;4988462;28;20026;-54
2022/07/19 00:52:35;;;;;;;11.57;5.90;;;;;;;23.61;54.86;101812.66;4964759;28;20048;-53
2022/07/19 00:55:01;;;;;;;8.70;5.80;;;;;;;23.54;55.00;101815.34;4980901;28;20083;-54
2022/07/19 00:57:27;;;;;;;8.85;6.05;;;;;;;23.55;54.71;101816.22;4985989;28;20034;-54
2022/07/19 00:59:54;;;;;;;8.68;6.20;;;;;;;23.49;54.62;101811.03;4975010;28;20019;-54
2022/07/19 01:02:20;;;;;;;9.80;6.43;;;;;;;23.47;54.79;101810.16;4980251;28;20034;-53
2022/07/19 01:04:45;;;;;;;11.65;6.10;;;;;;;23.41;55.28;101808.47;4981251;28;20034;-55
2022/07/19 01:07:10;;;;;;;9.73;5.97;;;;;;;23.35;55.50;101816.41;4988644;28;20030;-54
2022/07/19 01:09:41;;;;;;;8.23;5.88;;;;;;;23.33;55.63;101814.69;4981489;28;20105;-52
2022/07/19 01:12:07;;;;;;;7.65;5.63;;;;;;;23.27;55.34;101810.38;4980900;28;20060;-49
2022/07/19 01:14:35;;;;;;;14.35;6.20;;;;;;;23.27;55.71;101813.00;4984633;28;20081;-54
2022/07/19 01:17:00;;;;;;;10.93;6.07;;;;;;;23.23;55.52;101812.13;4986791;28;20029;-54
2022/07/19 01:19:26;;;;;;;9.55;6.03;;;;;;;23.16;55.68;101806.97;4986939;28;20038;-53
2022/07/19 01:21:51;;;;;;;9.55;6.10;;;;;;;23.17;55.56;101806.06;4983709;28;20027;-53
2022/07/19 01:24:17;;;;;;;12.77;6.60;;;;;;;23.16;54.95;101810.47;4983968;28;20607;-54
2022/07/19 01:26:42;;;;;;;15.90;6.32;;;;;;;23.14;55.86;101809.63;4970592;28;20373;-55
2022/07/19 01:29:07;;;;;;;8.77;6.00;;;;;;;23.12;56.19;101811.38;4980818;28;20051;-53
2022/07/19 01:31:33;;;;;;;13.70;6.40;;;;;;;23.14;55.88;101812.25;4982468;28;20030;-54
2022/07/19 01:33:58;;;;;;;11.18;6.30;;;;;;;23.09;56.39;101810.53;4967480;28;20038;-52
2022/07/19 01:36:24;;;;;;;9.95;5.85;;;;;;;23.11;56.80;101819.25;4984229;28;20038;-51
2022/07/19 01:38:49;;;;;;;7.82;5.72;;;;;;;23.04;56.49;101817.56;4985255;28;20030;-53
2022/07/19 01:41:14;;;;;;;10.88;5.88;;;;;;;22.97;56.97;101819.38;4982680;28;20046;-52
2022/07/19 01:43:40;;;;;;;7.25;5.60;;;;;;;22.96;57.08;101815.88;4980772;28;20078;-50
2022/07/19 01:46:05;;;;;;;9.02;5.60;;;;;;;22.88;57.27;101815.09;4967471;28;20035;-56
2022/07/19 01:48:31;;;;;;;12.75;5.50;;;;;;;22.90;57.48;101813.31;4981236;28;20419;-54
2022/07/19 01:50:56;;;;;;;11.02;5.72;;;;;;;22.91;57.88;101807.19;4984502;28;20035;-53
2022/07/19 01:53:21;;;;;;;10.88;5.32;;;;;;;22.79;58.00;101809.88;4983870;28;20029;-52
2022/07/19 01:55:47;;;;;;;10.80;5.80;;;;;;;22.80;57.37;101805.47;4981036;28;20042;-49
2022/07/19 01:58:12;;;;;;;8.23;5.07;;;;;;;22.68;57.83;101814.31;4982346;28;20039;-51
2022/07/19 02:00:37;;;;;;;9.57;5.55;;;;;;;22.72;58.06;101802.94;4982407;28;20121;-50
2022/07/19 02:03:03;;;;;;;13.15;5.40;;;;;;;22.69;58.47;101809.06;4967837;28;22929;-51
2022/07/19 02:05:28;;;;;;;8.95;5.05;;;;;;;22.67;57.53;101809.94;4988600;28;20030;-48
2022/07/19 02:07:53;;;;;;;9.43;5.50;;;;;;;22.65;58.25;101802.09;4988671;28;20038;-50
2022/07/19 02:10:19;;;;;;;8.10;5.30;;;;;;;22.68;58.34;101806.44;4989902;28;20038;-53
2022/07/19 02:12:45;;;;;;;10.38;5.35;;;;;;;22.57;58.97;101808.25;4989054;28;20042;-53
2022/07/19 02:15:10;;;;;;;11.40;6.15;;;;;;;22.52;58.35;101803.06;4989439;28;20100;-53
2022/07/19 02:17:36;;;;;;;7.32;5.13;;;;;;;22.48;58.56;101801.34;4984901;28;20030;-54
2022/07/19 02:20:03;;;;;;;10.25;5.63;;;;;;;22.51;58.58;101801.34;4988523;28;20038;-55
2022/07/19 02:22:28;;;;;;;9.52;5.50;;;;;;;22.45;59.19;101797.00;4989006;28;20089;-54
2022/07/19 02:24:54;;;;;;;8.50;4.90;;;;;;;22.41;59.55;101792.66;4986855;28;20034;-54
2022/07/19 02:27:19;;;;;;;9.95;5.13;;;;;;;22.37;59.63;101783.06;4981097;28;20045;-54
2022/07/19 02:29:45;;;;;;;9.90;5.53;;;;;;;22.35;59.90;101789.19;4987545;28;20030;-50
2022/07/19 02:32:11;;;;;;;10.40;5.45;;;;;;;22.27;59.11;101776.16;4985349;28;20676;-53
2022/07/19 02:34:37;;;;;;;8.15;5.15;;;;;;;22.29;59.06;101779.63;4991427;28;20036;-52
2022/07/19 02:37:02;;;;;;;8.35;5.75;;;;;;;22.25;59.88;101777.03;4974341;28;20034;-53
2022/07/19 02:39:28;;;;;;;8.77;5.35;;;;;;;22.18;60.07;101784.06;5000912;28;20034;-53
2022/07/19 02:41:53;;;;;;;8.13;5.28;;;;;;;22.18;60.17;101782.28;4984964;28;20034;-54
2022/07/19 02:44:18;;;;;;;7.57;5.18;;;;;;;22.14;60.41;101787.56;4986571;28;20112;-53
2022/07/19 02:46:44;;;;;;;8.50;5.45;;;;;;;22.15;60.02;101781.47;4988804;28;20039;-54
2022/07/19 02:49:09;;;;;;;8.43;5.70;;;;;;;22.14;59.98;101779.69;4990799;28;20038;-53
2022/07/19 02:51:35;;;;;;;9.20;5.20;;;;;;;22.18;59.87;101784.06;4981321;28;20451;-54
2022/07/19 02:54:00;;;;;;;10.35;5.30;;;;;;;22.07;60.06;101781.44;4986858;28;20398;-53
2022/07/19 02:56:26;;;;;;;9.30;5.45;;;;;;;22.09;60.51;101771.88;4982377;28;20026;-52
2022/07/19 02:58:51;;;;;;;9.80;5.28;;;;;;;22.05;59.97;101782.34;4986970;28;20085;-52
2022/07/19 03:01:17;;;;;;;11.73;6.35;;;;;;;22.06;59.85;101778.84;4984546;28;20457;-54
2022/07/19 03:03:47;;;;;;;8.57;5.30;;;;;;;21.97;60.19;101778.91;4981926;28;20031;-52
2022/07/19 03:06:14;;;;;;;12.98;5.22;;;;;;;21.99;60.39;101782.38;4984801;28;20034;-52
2022/07/19 03:08:39;;;;;;;9.07;5.25;;;;;;;21.89;59.68;101771.06;4983595;28;20034;-53
2022/07/19 03:11:05;;;;;;;8.48;5.35;;;;;;;21.91;59.85;101769.31;4987814;28;20034;-53
2022/07/19 03:13:30;;;;;;;8.05;5.18;;;;;;;21.88;59.69;101771.94;4987429;28;21071;-51
2022/07/19 03:15:56;;;;;;;8.85;5.10;;;;;;;21.87;60.12;101764.97;4979844;28;20121;-54
2022/07/19 03:18:21;;;;;;;7.43;5.40;;;;;;;21.81;59.85;101765.00;4984306;28;20049;-53
2022/07/19 03:20:46;;;;;;;7.47;5.40;;;;;;;21.80;60.16;101766.75;4984732;28;20029;-54
2022/07/19 03:23:12;;;;;;;7.53;5.30;;;;;;;21.80;60.15;101763.25;4982641;28;20050;-54
2022/07/19 03:25:37;;;;;;;9.65;5.68;;;;;;;21.76;59.93;101767.63;4982621;28;20034;-52
2022/07/19 03:28:03;;;;;;;10.15;5.65;;;;;;;21.75;60.81;101763.25;4982169;28;20767;-48
2022/07/19 03:30:28;;;;;;;7.95;5.55;;;;;;;21.75;60.47;101760.66;4987528;28;20030;-54
2022/07/19 03:32:54;;;;;;;7.25;5.32;;;;;;;21.76;60.37;101756.28;4985994;28;20105;-49
2022/07/19 03:35:19;;;;;;;11.95;6.22;;;;;;;21.68;59.81;101759.81;4987288;28;20038;-52
2022/07/19 03:37:45;;;;;;;12.00;6.30;;;;;;;21.68;60.18;101749.34;4986632;28;20046;-53
2022/07/19 03:40:11;;;;;;;7.28;5.05;;;;;;;21.68;60.75;101758.94;4987024;28;20037;-53
2022/07/19 03:42:37;;;;;;;8.82;5.60;;;;;;;21.62;61.03;101767.69;4984706;28;20054;-50
2022/07/19 03:45:03;;;;;;;7.05;6.00;;;;;;;21.67;60.77;101767.66;4986459;28;20030;-52
2022/07/19 03:47:28;;;;;;;11.95;6.30;;;;;;;21.65;60.76;101765.03;4989383;28;20037;-53
2022/07/19 03:49:53;;;;;;;11.95;5.57;;;;;;;21.65;60.46;101754.56;4984916;28;20026;-50
2022/07/19 03:52:19;;;;;;;11.85;6.20;;;;;;;21.60;60.35;101758.09;4988072;28;20068;-53
2022/07/19 03:54:44;;;;;;;12.57;6.03;;;;;;;21.64;60.45;101765.03;4984484;28;20499;-51
2022/07/19 03:57:09;;;;;;;10.05;5.75;;;;;;;21.64;60.59;101760.69;4985263;28;20115;-51
2022/07/19 03:59:35;;;;;;;13.85;6.35;;;;;;;21.63;61.20;101764.19;4983411;28;20034;-52
2022/07/19 04:02:00;;;;;;;13.27;6.43;;;;;;;21.62;60.64;101765.06;4986117;28;20027;-53
2022/07/19 04:04:25;;;;;;;11.68;7.25;;;;;;;21.58;60.19;101771.16;4987937;28;20046;-54
2022/07/19 04:06:51;;;;;;;11.85;6.80;;;;;;;21.47;60.26;101769.44;4982636;28;20053;-54
2022/07/19 04:09:16;;;;;;;11.43;6.22;;;;;;;21.46;60.86;101776.44;4984079;28;20033;-52
2022/07/19 04:11:42;;;;;;;11.25;6.22;;;;;;;21.40;61.21;101772.09;4987796;28;20030;-51
2022/07/19 04:14:07;;;;;;;9.25;6.35;;;;;;;21.40;61.24;101769.47;4965600;28;20066;-53
2022/07/19 04:16:33;;;;;;;11.20;5.90;;;;;;;21.35;61.75;101768.59;4989605;28;20034;-54
2022/07/19 04:18:58;;;;;;;8.52;5.90;;;;;;;21.36;61.55;101774.72;4990651;28;20038;-53
2022/07/19 04:21:23;;;;;;;9.98;5.43;;;;;;;21.37;61.98;101764.25;4983836;28;20497;-54
2022/07/19 04:23:49;;;;;;;12.73;6.78;;;;;;;21.38;61.96;101763.38;4978759;28;20041;-54
2022/07/19 04:26:14;;;;;;;10.13;6.05;;;;;;;21.36;61.97;101766.88;4982834;28;20042;-54
2022/07/19 04:28:40;;;;;;;11.88;6.80;;;;;;;21.38;61.88;101768.59;4985617;28;20041;-53
2022/07/19 04:31:06;;;;;;;10.00;6.82;;;;;;;21.38;61.99;101767.75;4980441;28;20043;-54
2022/07/19 04:33:31;;;;;;;8.55;6.60;;;;;;;21.41;62.20;101763.34;4968106;28;20075;-54
2022/07/19 04:35:56;;;;;;;12.40;7.65;;;;;;;21.41;61.90;101776.44;4982577;28;20100;-53
2022/07/19 04:38:22;;;;;;;12.85;7.85;;;;;;;21.44;62.12;101765.09;4983957;28;20034;-53
2022/07/19 04:40:48;;;;;;;15.35;7.75;;;;;;;21.44;61.34;101769.47;4981898;28;20045;-53
2022/07/19 04:43:13;;;;;;;15.30;8.55;;;;;;;21.47;61.35;101765.09;4982163;28;20081;-53
2022/07/19 04:45:44;;;;;;;16.58;8.85;;;;;;;21.51;60.95;101763.34;4984873;28;20500;-53
2022/07/19 04:48:09;;;;;;;16.42;9.07;;;;;;;21.48;60.62;101769.47;4963249;28;20034;-53
2022/07/19 04:50:34;;;;;;;15.77;9.95;;;;;;;21.55;59.79;101776.44;4967777;28;20058;-48
2022/07/19 04:53:00;;;;;;;16.92;9.65;;;;;;;21.57;59.37;101766.81;4985992;28;20042;-51
2022/07/19 04:55:25;;;;;;;17.15;10.75;;;;;;;21.58;59.19;101762.44;4983479;28;20486;-54
2022/07/19 04:57:51;;;;;;;16.35;10.57;;;;;;;21.61;59.74;101776.41;4978923;28;20988;-51
2022/07/19 05:00:17;;;;;;;15.02;10.25;;;;;;;21.58;59.71;101768.53;4978235;28;20040;-53
2022/07/19 05:02:42;;;;;;;17.30;10.90;;;;;;;21.61;58.74;101770.31;4978659;28;20137;-53
2022/07/19 05:05:08;;;;;;;14.70;10.90;;;;;;;21.66;58.39;101761.56;4979490;28;20056;-53
2022/07/19 05:07:33;;;;;;;15.88;11.25;;;;;;;21.71;60.17;101763.28;4965229;28;20038;-52
2022/07/19 05:09:59;;;;;;;18.95;11.48;;;;;;;21.68;60.14;101759.81;4979226;28;20117;-53
2022/07/19 05:12:24;;;;;;;14.98;10.95;;;;;;;21.73;59.60;101765.03;4974710;28;20095;-53
2022/07/19 05:14:50;;;;;;;16.48;11.20;;;;;;;21.75;59.89;101771.13;4978593;28;20062;-53
2022/07/19 05:17:15;;;;;;;21.52;11.85;;;;;;;21.76;58.69;101767.63;4984378;28;20582;-52
2022/07/19 05:19:41;;;;;;;19.13;12.45;;;;;;;21.84;57.78;101759.72;4987596;28;20034;-51
2022/07/19 05:22:07;;;;;;;20.63;13.23;;;;;;;21.87;57.08;101765.84;4977762;28;20145;-52
2022/07/19 05:24:32;;;;;;;18.63;13.18;;;;;;;21.93;56.91;101760.56;4981968;28;20398;-51
2022/07/19 05:26:58;;;;;;;23.52;13.75;;;;;;;21.96;56.56;101770.13;4985654;28;20034;-52
2022/07/19 05:29:23;;;;;;;22.40;12.57;;;;;;;22.04;56.07;101768.38;4977435;28;20061;-53
2022/07/19 05:31:48;;;;;;;22.70;13.10;;;;;;;22.08;55.87;101769.22;4978004;28;20050;-50
2022/07/19 05:34:14;;;;;;;21.15;14.07;;;;;;;22.12;55.72;101763.13;4977822;28;20054;-52
2022/07/19 05:36:39;;;;;;;17.83;12.82;;;;;;;22.19;56.48;101764.81;4980358;28;21106;-53
2022/07/19 05:39:05;;;;;;;22.08;14.25;;;;;;;22.25;55.89;101766.53;4978438;28;20064;-53
2022/07/19 05:41:31;;;;;;;26.20;13.65;;;;;;;22.31;55.40;101772.63;4978007;28;20121;-49
2022/07/19 05:43:56;;;;;;;19.27;13.13;;;;;;;22.37;55.70;101772.56;4979002;28;20038;-54
2022/07/19 05:46:22;;;;;;;22.30;13.70;;;;;;;22.41;56.16;101766.44;4981890;28;20069;-54
2022/07/19 05:48:47;;;;;;;21.77;13.90;;;;;;;22.51;55.74;101774.22;4982343;28;20499;-52
2022/07/19 05:51:13;;;;;;;23.65;14.07;;;;;;;22.55;54.96;101773.34;4983081;28;20038;-52
2022/07/19 05:53:39;;;;;;;23.35;14.27;;;;;;;22.61;54.81;101775.91;4985348;28;20154;-54
2022/07/19 05:56:05;;;;;;;26.83;13.90;;;;;;;22.67;54.60;101768.00;4962377;28;20507;-54
2022/07/19 05:58:30;;;;;;;19.73;13.98;;;;;;;22.71;54.47;101767.09;4986448;28;20038;-54
2022/07/19 06:03:40;;;;;;;21.17;13.43;;;;;;;22.89;54.07;101766.13;4983125;28;20131;-54
2022/07/19 06:06:05;;;;;;;18.05;12.32;;;;;;;22.92;54.42;101769.56;4981271;28;20069;-54
2022/07/19 06:08:31;;;;;;;25.45;13.45;;;;;;;22.96;54.05;101776.53;4980761;28;20046;-53
2022/07/19 06:10:56;;;;;;;21.55;12.32;;;;;;;23.05;53.50;101779.94;4979190;28;20062;-53
2022/07/19 06:13:22;;;;;;;17.58;11.43;;;;;;;23.16;53.06;101775.47;4979147;28;20030;-50
2022/07/19 06:15:49;;;;;;;22.80;11.10;;;;;;;23.19;53.41;101772.84;4960831;28;20402;-52
2022/07/19 06:18:15;;;;;;;17.55;11.07;;;;;;;23.24;53.27;101769.28;4980172;28;20031;-53
2022/07/19 06:20:40;;;;;;;19.80;11.35;;;;;;;23.32;53.43;101779.72;4983062;28;20567;-54
2022/07/19 06:23:06;;;;;;;21.95;11.63;;;;;;;23.37;52.38;101780.53;4982218;28;20121;-54
2022/07/19 06:25:31;;;;;;;18.05;10.80;;;;;;;23.41;52.64;101776.09;4980209;28;20509;-54
2022/07/19 06:27:57;;;;;;;19.70;10.95;;;;;;;23.55;52.17;101780.34;4978881;28;20479;-53
2022/07/19 06:30:22;;;;;;;18.58;10.43;;;;;;;23.63;52.23;101774.16;4976580;28;20026;-55
2022/07/19 06:32:47;;;;;;;20.27;10.95;;;;;;;23.66;52.29;101780.25;4978273;28;20141;-52
2022/07/19 06:35:13;;;;;;;18.42;11.20;;;;;;;23.71;52.07;101780.19;4978159;28;20076;-51
2022/07/19 06:37:38;;;;;;;21.75;12.18;;;;;;;23.78;51.88;101776.59;4977383;28;20022;-51
2022/07/19 06:40:04;;;;;;;21.17;13.02;;;;;;;23.86;51.56;101766.00;4975372;28;20057;-50
2022/07/19 06:42:30;;;;;;;20.50;12.85;;;;;;;23.85;51.82;101775.66;4977482;28;20460;-52
2022/07/19 06:44:56;;;;;;;19.55;11.80;;;;;;;23.94;52.27;101777.28;4959365;28;20509;-54
2022/07/19 06:47:21;;;;;;;21.42;12.82;;;;;;;24.08;52.43;101768.31;4974772;28;20076;-52
2022/07/19 06:49:47;;;;;;;17.30;12.60;;;;;;;24.12;52.74;101765.66;4976232;28;20075;-54
2022/07/19 06:52:12;;;;;;;25.60;12.98;;;;;;;24.25;51.99;101769.84;4982626;28;20042;-51
2022/07/19 06:54:38;;;;;;;19.05;12.80;;;;;;;24.34;52.34;101762.72;4983514;28;20038;-52
2022/07/19 06:57:03;;;;;;;22.58;13.43;;;;;;;24.36;51.82;101761.84;4978288;28;20047;-49
2022/07/19 06:59:28;;;;;;;18.90;12.43;;;;;;;24.44;51.45;101762.59;4981338;28;21396;-52
2022/07/19 07:01:54;;;;;;;21.85;12.23;;;;;;;24.47;51.11;101763.41;4976342;28;20084;-50
2022/07/19 07:04:19;;;;;;;18.25;11.95;;;;;;;24.57;50.23;101770.28;4961118;28;20183;-53
2022/07/19 07:06:44;;;;;;;20.63;12.00;;;;;;;24.67;50.63;101762.22;4977262;28;20046;-45
2022/07/19 07:09:10;;;;;;;19.77;9.98;;;;;;;24.77;51.92;101766.47;4978688;28;20585;-54
2022/07/19 07:11:36;;;;;;;22.92;12.05;;;;;;;24.84;50.94;101758.44;4978127;28;20030;-54
2022/07/19 07:14:01;;;;;;;18.63;11.50;;;;;;;24.98;50.37;101759.94;4960113;28;21797;-50
2022/07/19 07:16:27;;;;;;;24.63;11.52;;;;;;;25.06;50.70;101766.00;4977125;28;20031;-54
2022/07/19 07:18:52;;;;;;;27.33;11.48;;;;;;;25.13;50.43;101759.72;4959953;28;20031;-53
2022/07/19 07:21:18;;;;;;;21.55;12.15;;;;;;;25.24;50.89;101756.88;4978013;28;20034;-50
2022/07/19 07:23:43;;;;;;;16.77;10.80;;;;;;;25.31;51.96;101764.66;4976369;28;20110;-53
2022/07/19 07:26:09;;;;;;;17.80;11.50;;;;;;;25.42;50.57;101753.88;4979466;28;20031;-54
2022/07/19 07:28:34;;;;;;;20.33;10.80;;;;;;;25.56;49.89;101761.53;4962084;28;20088;-55
2022/07/19 07:31:00;;;;;;;18.65;11.38;;;;;;;25.62;50.66;101762.28;4959410;28;20155;-53
2022/07/19 07:33:26;;;;;;;20.85;10.23;;;;;;;25.65;50.37;101759.56;4980194;28;20030;-54
2022/07/19 07:35:51;;;;;;;19.90;11.05;;;;;;;25.78;49.89;101749.66;4973219;28;20053;-48
2022/07/19 07:38:16;;;;;;;23.90;10.48;;;;;;;25.79;50.17;101747.94;4970390;28;20425;-52
2022/07/19 07:40:42;;;;;;;21.92;10.90;;;;;;;25.92;50.42;101747.63;4974671;28;20456;-49
2022/07/19 07:43:07;;;;;;;25.33;11.30;;;;;;;26.00;50.88;101738.69;4959544;28;20063;-53
2022/07/19 07:45:33;;;;;;;19.55;9.00;;;;;;;26.04;50.17;101741.22;4976370;28;20035;-53
2022/07/19 07:47:59;;;;;;;19.88;10.45;;;;;;;26.18;50.14;101735.63;4975797;28;20038;-54
2022/07/19 07:50:24;;;;;;;22.42;10.32;;;;;;;26.21;50.71;101732.94;4977366;28;20065;-53
2022/07/19 07:52:50;;;;;;;22.45;9.43;;;;;;;26.33;51.23;101742.31;4976119;28;21070;-50
2022/07/19 07:55:15;;;;;;;19.35;9.50;;;;;;;26.36;49.50;101737.84;4972693;28;20049;-53
2022/07/19 07:57:41;;;;;;;16.45;8.48;;;;;;;26.44;49.92;101743.81;4977033;28;20601;-54
2022/07/19 08:00:09;;;;;;;16.75;8.73;;;;;;;26.55;51.50;101734.78;4957276;28;20038;-55
2022/07/19 08:02:43;;;;;;;18.02;8.27;;;;;;;26.62;51.10;101736.38;4977967;28;20034;-55
2022/07/19 08:05:10;;;;;;;18.23;8.85;;;;;;;26.75;50.64;101735.16;4973132;28;20026;-54
2022/07/19 08:07:36;;;;;;;14.95;7.75;;;;;;;26.79;50.54;101735.94;4979991;28;20080;-54
2022/07/19 08:10:07;;;;;;;18.27;8.90;;;;;;;26.82;49.40;101733.25;4976928;28;20442;-52
2022/07/19 08:12:33;;;;;;;16.20;8.05;;;;;;;26.90;49.14;101734.78;4981153;28;20039;-56
2022/07/19 08:14:58;;;;;;;16.52;7.88;;;;;;;26.97;49.76;101733.69;4980697;28;20034;-50
2022/07/19 08:17:24;;;;;;;21.02;7.72;;;;;;;27.07;49.25;101730.84;4962593;28;20113;-54
2022/07/19 08:19:50;;;;;;;17.50;7.00;;;;;;;27.08;48.50;101730.81;4979849;28;20038;-50
2022/07/19 08:22:16;;;;;;;10.52;6.70;;;;;;;27.14;49.45;101730.66;4978150;28;21010;-55
2022/07/19 08:24:42;;;;;;;17.33;6.97;;;;;;;27.17;48.41;101735.81;4973960;28;20379;-51
2022/07/19 08:27:08;;;;;;;13.15;6.30;;;;;;;27.26;47.82;101729.44;4969426;28;20427;-54
2022/07/19 08:29:33;;;;;;;12.07;5.80;;;;;;;27.34;48.51;101721.31;4976698;28;20031;-50
2022/07/19 08:31:59;;;;;;;11.45;5.07;;;;;;;27.34;48.85;101723.94;4977635;28;20026;-54
2022/07/19 08:34:24;;;;;;;12.10;4.90;;;;;;;27.47;48.92;101726.19;4968353;28;20525;-55
2022/07/19 08:36:50;;;;;;;17.23;5.95;;;;;;;27.63;47.07;101723.97;4976830;28;20058;-53
2022/07/19 08:39:15;;;;;;;19.85;5.57;;;;;;;27.71;46.31;101718.47;4980570;28;20050;-53
2022/07/19 08:41:44;;;;;;;13.65;5.82;;;;;;;27.68;45.38;101719.44;4975992;28;20113;-55
2022/07/19 08:44:12;;;;;;;9.07;4.00;;;;;;;27.72;46.63;101714.94;4974196;28;20053;-52
2022/07/19 08:46:39;;;;;;;14.38;4.80;;;;;;;27.84;46.38;101717.19;4981450;28;20106;-53
2022/07/19 08:49:05;;;;;;;13.25;4.05;;;;;;;27.89;45.07;101717.06;4979604;28;20053;-54
2022/07/19 08:51:31;;;;;;;8.65;3.92;;;;;;;28.00;44.10;101712.31;4985870;28;20494;-51
2022/07/19 08:53:57;;;;;;;9.45;3.60;;;;;;;28.02;45.17;101707.84;4987412;28;20573;-55
2022/07/19 08:59:06;;;;;;;10.43;3.25;;;;;;;28.13;45.74;101711.00;4985644;28;20045;-57
2022/07/19 09:01:32;;;;;;;14.65;3.70;;;;;;;28.29;44.49;101714.03;4980083;28;20035;-51
2022/07/19 09:04:03;;;;;;;9.02;3.75;;;;;;;28.32;43.52;101704.25;4989700;28;20030;-52
2022/07/19 09:06:46;;;;;;;14.50;3.80;;;;;;;28.36;43.58;101702.38;4983258;28;20083;-52
2022/07/19 09:09:13;;;;;;;10.18;3.42;;;;;;;28.50;43.33;101707.22;4976725;28;20178;-53
2022/07/19 09:11:51;;;;;;;15.02;3.65;;;;;;;28.50;43.26;101705.41;4985618;28;22494;-50
2022/07/19 09:14:20;;;;;;;10.07;3.47;;;;;;;28.66;42.06;101699.63;4979388;28;20023;-52
2022/07/19 09:17:01;;;;;;;12.77;3.67;;;;;;;28.74;42.83;101697.56;4982847;28;20078;-53
2022/07/19 09:19:28;;;;;;;11.15;3.40;;;;;;;28.84;41.90;101702.50;4982909;28;20035;-51
2022/07/19 09:21:58;;;;;;;14.60;3.88;;;;;;;28.82;43.11;101704.34;4977964;28;20037;-52
2022/07/19 09:24:25;;;;;;;9.73;3.92;;;;;;;28.93;41.16;101703.13;4976819;28;20399;-56
2022/07/19 09:27:02;;;;;;;11.65;3.90;;;;;;;28.98;41.81;101698.53;4979312;28;20037;-51
2022/07/19 09:29:29;;;;;;;13.07;3.63;;;;;;;29.00;41.58;101694.94;4978172;28;20031;-54
2022/07/19 09:31:58;;;;;;;8.90;3.35;;;;;;;29.09;42.58;101691.06;4987995;28;20455;-52
2022/07/19 09:34:28;;;;;;;12.05;3.20;;;;;;;29.09;41.26;101696.38;4980446;28;22545;-53
2022/07/19 09:37:21;;;;;;;9.80;3.67;;;;;;;29.16;41.68;101692.56;4983478;28;20446;-52
2022/07/19 09:39:51;;;;;;;10.80;3.10;;;;;;;29.20;41.83;101694.19;4973320;28;20038;-54
2022/07/19 09:42:21;;;;;;;6.88;3.53;;;;;;;29.29;42.83;101690.34;4978387;28;20066;-53
2022/07/19 09:44:57;;;;;;;8.25;4.07;;;;;;;29.36;40.64;101690.06;4969907;28;20069;-53
2022/07/19 09:47:31;;;;;;;6.35;3.30;;;;;;;29.35;40.86;101685.66;4976111;28;20062;-51
2022/07/19 09:49:57;;;;;;;6.55;3.05;;;;;;;29.47;40.77;101676.41;4992648;28;20038;-52
2022/07/19 09:52:24;;;;;;;9.40;3.20;;;;;;;29.51;41.24;101682.47;4954676;28;20034;-52
2022/07/19 09:54:51;;;;;;;8.00;3.05;;;;;;;29.54;40.75;101685.00;4966746;28;20056;-49
2022/07/19 09:57:22;;;;;;;8.80;3.20;;;;;;;29.52;43.20;101682.44;4979524;28;20410;-53
2022/07/19 09:59:51;;;;;;;11.70;3.60;;;;;;;29.58;41.93;101683.97;4979819;28;20501;-52
2022/07/19 10:02:21;;;;;;;12.57;3.67;;;;;;;29.66;41.45;101681.88;4995998;28;20040;-50
2022/07/19 10:04:46;;;;;;;12.93;3.33;;;;;;;29.72;40.84;101679.00;4986273;28;20033;-52
2022/07/19 10:07:13;;;;;;;7.95;3.13;;;;;;;29.76;39.90;101680.63;4979480;28;20038;-52
2022/07/19 10:09:39;;;;;;;7.63;3.33;;;;;;;29.76;40.07;101670.00;4981123;28;20083;-52
2022/07/19 10:12:05;;;;;;;8.75;3.08;;;;;;;29.89;39.08;101670.38;4972856;28;20040;-53
2022/07/19 10:14:30;;;;;;;8.13;3.38;;;;;;;29.87;40.55;101674.91;4974662;28;20030;-54
2022/07/19 10:17:18;;;;;;;8.25;3.20;;;;;;;29.96;39.94;101669.22;4963451;28;20123;-51
2022/07/19 10:19:46;;;;;;;8.43;3.60;;;;;;;30.00;39.23;101662.88;4965824;28;20034;-47
2022/07/19 10:22:14;;;;;;;5.22;2.97;;;;;;;30.10;39.93;101660.72;4988054;28;20030;-49
2022/07/19 10:24:51;;;;;;;15.20;3.70;;;;;;;30.23;39.35;101663.75;4984695;28;20505;-53
2022/07/19 10:27:35;;;;;;;8.43;3.22;;;;;;;30.29;37.74;101653.75;4980255;28;20049;-51
2022/07/19 10:30:13;;;;;;;11.38;3.55;;;;;;;30.40;38.16;101659.47;4982516;28;20680;-54
2022/07/19 10:32:41;;;;;;;9.65;3.40;;;;;;;30.45;37.88;101660.13;4992524;28;20099;-50
2022/07/19 10:35:25;;;;;;;14.15;3.55;;;;;;;30.51;37.03;101647.53;4991496;28;20026;-48
2022/07/19 10:37:52;;;;;;;8.18;3.25;;;;;;;30.53;37.17;101654.50;4986037;28;20039;-51
2022/07/19 10:40:41;;;;;;;7.60;3.50;;;;;;;30.68;37.68;101658.31;4982503;28;20087;-48
2022/07/19 10:43:12;;;;;;;9.88;3.22;;;;;;;30.74;36.71;101649.22;4988527;28;20042;-51
2022/07/19 10:45:40;;;;;;;7.03;3.38;;;;;;;30.82;35.51;101642.66;4987254;28;20034;-47
2022/07/19 10:48:08;;;;;;;8.93;3.22;;;;;;;30.85;36.27;101644.28;4982510;28;20049;-49
2022/07/19 10:50:51;;;;;;;11.43;3.33;;;;;;;30.95;36.18;101632.34;4989248;28;20492;-47
2022/07/19 10:53:41;;;;;;;7.88;3.13;;;;;;;30.93;36.39;101635.03;4974127;28;20053;-47
2022/07/19 10:56:17;;;;;;;7.82;3.08;;;;;;;31.04;34.64;101628.41;5003540;28;20039;-47
2022/07/19 10:58:51;;;;;;;8.38;3.10;;;;;;;31.13;33.55;101631.50;4988049;28;20036;-46
2022/07/19 11:01:19;;;;;;;9.30;3.38;;;;;;;31.12;34.75;101624.44;4959631;28;20554;-45
2022/07/19 11:03:45;;;;;;;9.38;3.08;;;;;;;31.13;35.60;101630.66;4971855;28;20034;-49
2022/07/19 11:06:19;;;;;;;8.45;3.28;;;;;;;31.16;36.30;101620.72;4963075;28;20042;-47
2022/07/19 11:08:44;;;;;;;9.55;2.97;;;;;;;31.19;33.94;101619.75;4981711;28;20490;-48
2022/07/19 11:11:15;;;;;;;6.30;2.83;;;;;;;31.36;33.14;101624.28;4974945;28;20038;-45
2022/07/19 11:13:44;;;;;;;7.72;3.08;;;;;;;31.27;33.59;101620.25;4964419;28;20033;-47
2022/07/19 11:16:10;;;;;;;9.07;2.40;;;;;;;31.38;33.52;101611.81;4981164;28;20037;-46
2022/07/19 11:18:36;;;;;;;4.55;2.38;;;;;;;31.43;32.17;101608.00;4993630;28;20023;-46
2022/07/19 11:21:04;;;;;;;4.97;2.90;;;;;;;31.50;33.36;101604.09;4965390;28;20039;-46